createdAt,value
2018-05-10T00:01:57.739Z,10.45
2018-05-10T00:04:26.464Z,9.63
2018-05-10T00:06:54.965Z,8.55
2018-05-10T00:09:23.669Z,9.43
2018-05-10T00:11:53.149Z,8.63
2018-05-10T00:14:21.854Z,10.10
2018-05-10T00:16:50.583Z,9.85
2018-05-10T00:19:19.974Z,10.48
2018-05-10T00:21:49.464Z,9.50
2018-05-10T00:24:18.201Z,7.78
2018-05-10T00:26:47.113Z,8.30
2018-05-10T00:29:15.817Z,9.43
2018-05-10T00:31:44.542Z,8.43
2018-05-10T00:34:13.236Z,8.48
2018-05-10T00:36:41.958Z,10.13
2018-05-10T00:39:10.665Z,8.93
2018-05-10T00:41:39.391Z,8.50
2018-05-10T00:44:08.101Z,9.68
2018-05-10T00:46:36.809Z,8.25
2018-05-10T00:49:05.542Z,8.65
2018-05-10T00:51:35.018Z,9.25
2018-05-10T00:54:03.760Z,9.27
2018-05-10T00:56:32.465Z,8.98
2018-05-10T00:59:01.182Z,8.85
2018-05-10T01:01:29.940Z,9.40
2018-05-10T01:03:58.649Z,9.05
2018-05-10T01:06:27.067Z,8.45
2018-05-10T01:08:56.542Z,9.13
2018-05-10T01:11:26.180Z,9.32
2018-05-10T01:13:55.070Z,8.40
2018-05-10T01:16:24.547Z,9.32
2018-05-10T01:18:53.293Z,7.70
2018-05-10T01:21:21.997Z,9.57
2018-05-10T01:23:50.701Z,9.00
2018-05-10T01:26:19.454Z,7.97
2018-05-10T01:28:47.827Z,10.10
2018-05-10T01:31:16.576Z,9.00
2018-05-10T01:33:45.279Z,9.70
2018-05-10T01:36:15.947Z,9.02
2018-05-10T01:38:44.677Z,9.88
2018-05-10T01:41:13.059Z,9.27
2018-05-10T01:43:41.782Z,9.35
2018-05-10T01:46:11.149Z,7.93
2018-05-10T01:48:39.529Z,9.80
2018-05-10T01:51:07.918Z,9.90
2018-05-10T01:53:36.625Z,9.82
2018-05-10T01:56:05.793Z,8.60
2018-05-10T01:58:34.497Z,9.98
2018-05-10T02:01:03.312Z,10.05
2018-05-10T02:03:32.055Z,10.23
2018-05-10T02:06:00.768Z,9.30
2018-05-10T02:08:30.264Z,9.80
2018-05-10T02:10:58.666Z,9.50
2018-05-10T02:13:28.134Z,9.07
2018-05-10T02:15:56.861Z,10.20
2018-05-10T02:18:26.334Z,9.50
2018-05-10T02:20:55.064Z,9.10
2018-05-10T02:23:23.770Z,8.60
2018-05-10T02:25:52.169Z,10.32
2018-05-10T02:28:20.889Z,10.32
2018-05-10T02:30:49.605Z,9.95
2018-05-10T02:33:18.339Z,9.88
2018-05-10T02:35:46.838Z,10.55
2018-05-10T02:38:15.551Z,10.27
2018-05-10T02:40:45.038Z,9.95
2018-05-10T02:43:13.745Z,9.25
2018-05-10T02:45:43.246Z,9.52
2018-05-10T02:48:12.717Z,9.70
2018-05-10T02:50:41.424Z,9.63
2018-05-10T02:53:10.161Z,9.90
2018-05-10T02:55:38.874Z,10.32
2018-05-10T02:58:07.274Z,9.70
2018-05-10T03:00:35.991Z,10.25
2018-05-10T03:03:05.458Z,9.27
2018-05-10T03:05:34.180Z,9.95
2018-05-10T03:08:02.914Z,10.25
2018-05-10T03:10:31.642Z,10.43
2018-05-10T03:13:00.347Z,9.13
2018-05-10T03:15:29.833Z,10.20
2018-05-10T03:17:59.338Z,11.55
2018-05-10T03:20:28.054Z,9.93
2018-05-10T03:22:56.797Z,10.95
2018-05-10T03:25:25.291Z,10.23
2018-05-10T03:27:54.003Z,10.57
2018-05-10T03:30:23.495Z,10.45
2018-05-10T03:32:53.686Z,10.13
2018-05-10T03:35:22.423Z,9.88
2018-05-10T03:37:51.135Z,10.73
2018-05-10T03:40:19.846Z,9.88
2018-05-10T03:42:48.591Z,10.75
2018-05-10T03:45:17.406Z,11.40
2018-05-10T03:47:46.145Z,10.57
2018-05-10T03:50:15.636Z,10.00
2018-05-10T03:52:45.206Z,10.63
2018-05-10T03:55:13.598Z,10.70
2018-05-10T03:57:42.300Z,10.02
2018-05-10T04:00:11.046Z,10.00
2018-05-10T04:16:25.588Z,10.77
2018-05-10T04:18:54.331Z,9.90
2018-05-10T04:21:23.033Z,9.50
2018-05-10T04:23:51.753Z,10.85
2018-05-10T04:26:21.243Z,9.63
2018-05-10T04:28:50.738Z,10.02
2018-05-10T04:31:19.483Z,10.82
2018-05-10T04:33:48.207Z,11.55
2018-05-10T04:36:16.693Z,9.73
2018-05-10T04:38:45.195Z,10.30
2018-05-10T04:41:14.664Z,9.57
2018-05-10T04:43:43.429Z,10.63
2018-05-10T04:46:12.149Z,10.05
2018-05-10T04:48:40.879Z,10.15
2018-05-10T04:51:09.605Z,9.95
2018-05-10T04:53:38.643Z,8.95
2018-05-10T04:56:08.010Z,8.93
2018-05-10T04:58:37.425Z,8.65
2018-05-10T05:01:06.141Z,9.48
2018-05-10T05:03:36.432Z,9.07
2018-05-10T05:06:05.147Z,8.60
2018-05-10T05:08:34.684Z,9.02
2018-05-10T05:11:03.417Z,9.98
2018-05-10T05:13:32.118Z,9.05
2018-05-10T05:16:00.851Z,8.48
2018-05-10T05:18:29.570Z,8.65
2018-05-10T05:20:58.319Z,8.75
2018-05-10T05:23:27.043Z,8.20
2018-05-10T05:25:55.763Z,9.30
2018-05-10T05:28:25.269Z,10.18
2018-05-10T05:30:54.005Z,10.60
2018-05-10T05:33:22.742Z,9.43
2018-05-10T05:35:51.469Z,9.43
2018-05-10T05:38:20.188Z,8.55
2018-05-10T05:40:49.863Z,9.07
2018-05-10T05:43:18.282Z,9.70
2018-05-10T05:45:47.934Z,9.45
2018-05-10T05:48:17.423Z,8.52
2018-05-10T05:50:46.139Z,8.77
2018-05-10T05:53:15.635Z,9.00
2018-05-10T05:55:45.455Z,8.00
2018-05-10T05:58:14.960Z,8.50
2018-05-10T06:00:44.548Z,15.43
2018-05-10T06:03:14.133Z,11.20
2018-05-10T06:05:42.884Z,7.75
2018-05-10T06:08:11.596Z,8.25
2018-05-10T06:10:40.336Z,8.25
2018-05-10T06:13:09.818Z,8.07
2018-05-10T06:15:38.606Z,8.50
2018-05-10T06:18:08.129Z,7.80
2018-05-10T06:20:37.594Z,8.13
2018-05-10T06:23:06.352Z,8.30
2018-05-10T06:25:35.216Z,7.12
2018-05-10T06:28:03.954Z,7.47
2018-05-10T06:30:32.341Z,7.22
2018-05-10T06:33:01.056Z,7.18
2018-05-10T06:35:29.799Z,12.88
2018-05-10T06:37:58.514Z,7.80
2018-05-10T06:40:27.226Z,7.60
2018-05-10T06:42:55.964Z,7.60
2018-05-10T06:45:25.782Z,6.50
2018-05-10T06:47:56.568Z,6.80
2018-05-10T06:50:26.049Z,7.75
2018-05-10T06:52:54.763Z,5.93
2018-05-10T06:55:24.993Z,6.55
2018-05-10T06:57:54.255Z,6.70
2018-05-10T07:00:23.930Z,6.97
2018-05-10T07:02:52.830Z,7.40
2018-05-10T07:05:21.540Z,7.32
2018-05-10T07:07:50.224Z,6.97
2018-05-10T07:10:18.972Z,7.28
2018-05-10T07:12:47.682Z,7.80
2018-05-10T07:15:16.423Z,7.85
2018-05-10T07:17:44.896Z,7.28
2018-05-10T07:20:13.627Z,7.50
2018-05-10T07:22:43.305Z,7.90
2018-05-10T07:25:12.898Z,7.43
2018-05-10T07:27:41.739Z,7.28
2018-05-10T07:30:10.465Z,6.82
2018-05-10T07:32:39.178Z,8.00
2018-05-10T07:35:08.698Z,7.25
2018-05-10T07:37:38.176Z,7.57
2018-05-10T07:40:06.934Z,6.40
2018-05-10T07:42:35.675Z,7.40
2018-05-10T07:45:05.993Z,6.40
2018-05-10T07:47:35.496Z,6.70
2018-05-10T07:50:05.085Z,6.30
2018-05-10T07:52:33.924Z,8.30
2018-05-10T07:55:04.178Z,9.32
2018-05-10T07:57:32.908Z,7.90
2018-05-10T08:00:02.415Z,8.40
2018-05-10T08:02:31.333Z,7.03
2018-05-10T08:05:00.080Z,7.40
2018-05-10T08:07:30.339Z,7.00
2018-05-10T08:10:01.333Z,6.60
2018-05-10T08:12:39.989Z,7.40
2018-05-10T08:15:09.911Z,7.10
2018-05-10T08:17:39.431Z,7.32
2018-05-10T08:20:08.167Z,6.05
2018-05-10T08:22:36.911Z,6.75
2018-05-10T08:25:05.642Z,6.60
2018-05-10T08:27:45.714Z,7.50
2018-05-10T08:30:14.168Z,6.65
2018-05-10T08:32:43.023Z,6.68
2018-05-10T08:35:12.729Z,6.80
2018-05-10T08:37:41.475Z,7.03
2018-05-10T08:40:10.789Z,6.78
2018-05-10T08:42:39.555Z,7.40
2018-05-10T08:45:08.362Z,7.05
2018-05-10T08:47:37.370Z,7.05
2018-05-10T08:50:06.176Z,6.35
2018-05-10T08:52:35.079Z,7.75
2018-05-10T08:55:04.172Z,6.90
2018-05-10T08:57:33.604Z,7.60
2018-05-10T09:00:03.415Z,6.90
2018-05-10T09:02:33.090Z,7.82
2018-05-10T09:05:01.851Z,7.18
2018-05-10T09:07:30.713Z,6.40
2018-05-10T09:09:59.536Z,7.15
2018-05-10T09:12:28.281Z,7.03
2018-05-10T09:14:56.739Z,7.40
2018-05-10T09:17:25.469Z,6.80
2018-05-10T09:19:54.718Z,6.83
2018-05-10T09:22:23.151Z,6.73
2018-05-10T09:24:52.576Z,7.23
2018-05-10T09:27:22.158Z,6.80
2018-05-10T09:29:51.151Z,7.60
2018-05-10T09:32:19.653Z,7.13
2018-05-10T09:34:48.890Z,7.30
2018-05-10T09:37:17.383Z,6.30
2018-05-10T09:39:46.686Z,6.70
2018-05-10T09:42:15.135Z,6.40
2018-05-10T09:44:43.610Z,6.87
2018-05-10T09:47:12.738Z,7.07
2018-05-10T09:49:42.398Z,6.70
2018-05-10T09:52:11.638Z,7.13
2018-05-10T09:54:41.087Z,6.67
2018-05-10T09:57:09.579Z,7.07
2018-05-10T09:59:39.608Z,6.80
2018-05-10T10:02:08.881Z,6.13
2018-05-10T10:04:37.345Z,7.50
2018-05-10T10:07:06.650Z,7.20
2018-05-10T10:09:35.862Z,7.03
2018-05-10T10:12:04.319Z,6.60
2018-05-10T10:14:32.790Z,7.27
2018-05-10T10:17:01.241Z,7.20
2018-05-10T10:19:30.459Z,7.43
2018-05-10T10:25:00.801Z,6.73
2018-05-10T10:27:29.349Z,7.67
2018-05-10T10:29:59.778Z,6.80
2018-05-10T10:32:28.325Z,6.30
2018-05-10T10:34:56.886Z,6.73
2018-05-10T10:37:26.102Z,6.77
2018-05-10T10:39:54.594Z,6.93
2018-05-10T10:42:23.238Z,7.53
2018-05-10T10:44:58.454Z,6.30
2018-05-10T10:47:27.832Z,7.43
2018-05-10T10:49:56.003Z,7.00
2018-05-10T10:52:25.920Z,7.07
2018-05-10T10:54:56.772Z,6.00
2018-05-10T10:57:26.231Z,5.97
2018-05-10T11:00:03.069Z,7.80
2018-05-10T11:02:34.351Z,6.50
2018-05-10T11:05:12.136Z,6.30
2018-05-10T11:07:41.387Z,7.33
2018-05-10T11:10:10.530Z,7.07
2018-05-10T11:12:39.462Z,6.77
2018-05-10T11:15:08.512Z,6.20
2018-05-10T11:17:37.772Z,6.60
2018-05-10T11:20:07.222Z,5.77
2018-05-10T11:22:36.511Z,6.60
2018-05-10T11:25:08.605Z,6.90
2018-05-10T11:27:37.835Z,7.00
2018-05-10T11:30:06.594Z,7.93
2018-05-10T11:32:34.809Z,6.10
2018-05-10T11:35:05.912Z,6.80
2018-05-10T11:37:34.970Z,6.40
2018-05-10T11:40:03.291Z,6.57
2018-05-10T11:42:35.379Z,6.53
2018-05-10T11:47:49.245Z,6.23
2018-05-10T11:50:18.548Z,6.23
2018-05-10T11:52:47.012Z,5.70
2018-05-10T11:55:16.690Z,6.17
2018-05-10T11:57:49.926Z,6.00
2018-05-10T12:00:19.075Z,6.93
2018-05-10T12:02:48.177Z,6.30
2018-05-10T12:05:17.489Z,6.80
2018-05-10T12:07:45.970Z,6.20
2018-05-10T12:10:16.502Z,6.50
2018-05-10T12:12:44.969Z,6.37
2018-05-10T12:15:14.259Z,6.63
2018-05-10T12:17:42.710Z,7.47
2018-05-10T12:20:13.201Z,6.00
2018-05-10T12:22:42.922Z,6.57
2018-05-10T12:25:12.706Z,5.33
2018-05-10T12:27:41.199Z,4.97
2018-05-10T12:30:11.869Z,4.90
2018-05-10T12:32:45.135Z,5.50
2018-05-10T12:35:14.343Z,5.77
2018-05-10T12:37:42.813Z,5.80
2018-05-10T12:40:12.086Z,5.57
2018-05-10T12:42:40.538Z,5.60
2018-05-10T12:45:08.983Z,4.90
2018-05-10T12:47:37.487Z,5.37
2018-05-10T12:50:05.995Z,5.50
2018-05-10T12:52:34.560Z,6.37
2018-05-10T12:55:03.489Z,6.03
2018-05-10T12:57:37.572Z,5.40
2018-05-10T13:00:06.525Z,5.67
2018-05-10T13:02:35.777Z,4.93
2018-05-10T13:05:03.918Z,5.80
2018-05-10T13:07:33.454Z,6.00
2018-05-10T13:10:02.312Z,5.57
2018-05-10T13:12:32.598Z,5.30
2018-05-10T13:15:01.093Z,6.10
2018-05-10T13:17:32.868Z,5.43
2018-05-10T13:20:02.194Z,5.73
2018-05-10T13:22:31.815Z,5.90
2018-05-10T13:25:00.922Z,6.10
2018-05-10T13:27:29.405Z,7.37
2018-05-10T13:30:03.115Z,6.33
2018-05-10T13:32:32.426Z,5.10
2018-05-10T13:35:00.889Z,6.07
2018-05-10T13:37:29.349Z,6.00
2018-05-10T13:39:57.802Z,6.50
2018-05-10T13:42:27.035Z,6.30
2018-05-10T13:44:55.162Z,6.07
2018-05-10T13:47:24.528Z,6.30
2018-05-10T13:49:54.325Z,6.77
2018-05-10T13:52:22.701Z,6.23
2018-05-10T13:54:51.174Z,5.83
2018-05-10T13:57:19.627Z,6.00
2018-05-10T13:59:48.862Z,5.60
2018-05-10T14:02:17.352Z,6.83
2018-05-10T14:04:46.532Z,5.93
2018-05-10T14:07:15.022Z,6.33
2018-05-10T14:09:44.450Z,6.77
2018-05-10T14:12:14.049Z,5.77
2018-05-10T14:14:42.497Z,5.83
2018-05-10T14:17:10.964Z,5.67
2018-05-10T14:19:39.878Z,5.43
2018-05-10T14:22:09.099Z,6.23
2018-05-10T14:24:38.485Z,6.00
2018-05-10T14:27:06.598Z,6.00
2018-05-10T14:29:35.052Z,6.03
2018-05-10T14:32:03.524Z,5.57
2018-05-10T14:34:31.954Z,6.17
2018-05-10T14:37:00.415Z,5.30
2018-05-10T14:39:28.913Z,6.80
2018-05-10T14:41:57.294Z,5.60
2018-05-10T14:44:25.781Z,5.67
2018-05-10T14:46:55.890Z,6.10
2018-05-10T14:49:24.371Z,5.60
2018-05-10T14:51:52.818Z,5.60
2018-05-10T14:54:21.467Z,5.30
2018-05-10T14:56:49.929Z,6.00
2018-05-10T14:59:18.368Z,6.30
2018-05-10T15:01:46.828Z,6.47
2018-05-10T15:04:27.745Z,6.10
2018-05-10T15:20:35.555Z,4.97
2018-05-10T15:23:05.938Z,4.80
2018-05-10T15:25:35.028Z,5.23
2018-05-10T15:28:05.518Z,6.00
2018-05-10T15:30:33.974Z,5.60
2018-05-10T15:33:02.434Z,5.40
2018-05-10T15:35:30.542Z,5.97
2018-05-10T15:38:00.963Z,6.03
2018-05-10T15:40:30.231Z,6.67
2018-05-10T15:42:58.668Z,6.70
2018-05-10T15:45:27.931Z,7.20
2018-05-10T15:47:56.379Z,6.77
2018-05-10T15:50:26.149Z,6.97
2018-05-10T15:52:57.424Z,6.00
2018-05-10T15:55:25.868Z,5.70
2018-05-10T15:57:54.344Z,6.20
2018-05-10T16:00:22.955Z,5.10
2018-05-10T16:02:51.728Z,5.33
2018-05-10T16:05:19.833Z,4.07
2018-05-10T16:07:47.977Z,8.60
2018-05-10T16:10:19.100Z,6.70
2018-05-10T16:12:47.782Z,5.23
2018-05-10T16:15:17.024Z,4.30
2018-05-10T16:17:45.462Z,6.70
2018-05-10T16:20:13.573Z,6.63
2018-05-10T16:22:43.649Z,6.67
2018-05-10T16:25:13.059Z,6.27
2018-05-10T16:27:43.323Z,6.70
2018-05-10T16:30:12.899Z,6.80
2018-05-10T16:32:41.367Z,7.53
2018-05-10T16:35:12.834Z,5.53
2018-05-10T16:37:41.325Z,7.30
2018-05-10T16:40:09.804Z,13.23
2018-05-10T16:42:38.314Z,6.53
2018-05-10T16:45:06.762Z,6.77
2018-05-10T16:47:38.682Z,6.50
2018-05-10T16:52:42.264Z,7.03
2018-05-10T16:55:12.542Z,6.77
2018-05-10T16:57:46.980Z,6.70
2018-05-10T17:00:15.442Z,6.27
2018-05-10T17:05:41.899Z,7.43
2018-05-10T17:08:12.485Z,7.40
2018-05-10T17:10:41.739Z,6.30
2018-05-10T17:13:10.773Z,6.72
2018-05-10T17:15:42.557Z,7.00
2018-05-10T17:18:13.746Z,7.40
2018-05-10T17:23:20.893Z,8.30
2018-05-10T17:25:53.941Z,8.27
2018-05-10T17:28:24.658Z,9.02
2018-05-10T17:30:54.843Z,8.10
2018-05-10T17:33:24.651Z,7.90
2018-05-10T17:35:54.574Z,8.48
2018-05-10T17:38:26.142Z,8.63
2018-05-10T17:40:55.259Z,8.55
2018-05-10T17:43:24.569Z,8.82
2018-05-10T17:45:58.001Z,8.68
2018-05-10T17:48:31.639Z,9.07
2018-05-10T17:51:01.099Z,11.85
2018-05-10T17:53:30.585Z,9.75
2018-05-10T17:56:00.116Z,10.57
2018-05-10T17:58:29.356Z,10.45
2018-05-10T18:00:58.130Z,10.68
2018-05-10T18:03:27.459Z,10.07
2018-05-10T18:05:57.084Z,10.50
2018-05-10T18:08:26.137Z,10.40
2018-05-10T18:10:54.883Z,10.18
2018-05-10T18:13:24.385Z,9.13
2018-05-10T18:15:55.369Z,9.07
2018-05-10T18:18:24.875Z,8.95
2018-05-10T18:20:53.781Z,9.02
2018-05-10T18:23:22.582Z,8.68
2018-05-10T18:25:52.669Z,8.48
2018-05-10T18:28:23.218Z,7.75
2018-05-10T18:30:52.705Z,9.60
2018-05-10T18:33:21.476Z,7.78
2018-05-10T18:35:50.338Z,7.95
2018-05-10T18:38:19.981Z,7.62
2018-05-10T18:40:49.523Z,7.53
2018-05-10T18:43:19.088Z,7.12
2018-05-10T18:45:49.401Z,6.68
2018-05-10T18:48:18.906Z,8.25
2018-05-10T18:50:48.321Z,6.90
2018-05-10T18:53:17.805Z,6.50
2018-05-10T18:55:46.536Z,6.75
2018-05-10T18:58:15.833Z,6.95
2018-05-10T19:00:45.098Z,8.45
2018-05-10T19:03:14.809Z,7.90
2018-05-10T19:05:43.534Z,8.40
2018-05-10T19:08:12.306Z,8.15
2018-05-10T19:10:41.793Z,7.68
2018-05-10T19:13:10.523Z,7.35
2018-05-10T19:15:39.276Z,7.35
2018-05-10T19:18:07.984Z,6.90
2018-05-10T19:20:37.465Z,6.93
2018-05-10T19:23:07.509Z,8.18
2018-05-10T19:25:36.031Z,7.65
2018-05-10T19:28:04.489Z,5.78
2018-05-10T19:30:33.220Z,7.80
2018-05-10T19:33:02.022Z,7.85
2018-05-10T19:35:30.802Z,7.05
2018-05-10T19:37:59.828Z,6.80
2018-05-10T19:40:29.311Z,6.70
2018-05-10T19:42:58.030Z,6.78
2018-05-10T19:45:28.131Z,6.37
2018-05-10T19:47:57.614Z,7.57
2018-05-10T19:50:26.353Z,6.93
2018-05-10T19:52:55.910Z,7.12
2018-05-10T19:55:24.671Z,7.03
2018-05-10T19:57:53.561Z,7.22
2018-05-10T20:00:22.365Z,7.57
2018-05-10T20:02:52.804Z,8.10
2018-05-10T20:05:21.545Z,8.82
2018-05-10T20:07:50.992Z,9.40
2018-05-10T20:10:19.756Z,10.82
2018-05-10T20:12:49.372Z,10.52
2018-05-10T20:15:17.763Z,12.90
2018-05-10T20:17:47.380Z,15.82
2018-05-10T20:20:17.912Z,16.55
2018-05-10T20:22:46.664Z,20.25
2018-05-10T20:25:15.067Z,17.62
2018-05-10T20:27:44.733Z,23.25
2018-05-10T20:30:14.254Z,26.83
2018-05-10T20:32:42.990Z,27.92
2018-05-10T20:35:12.543Z,25.80
2018-05-10T20:37:41.303Z,29.92
2018-05-10T20:40:10.053Z,28.08
2018-05-10T20:42:38.790Z,30.37
2018-05-10T20:45:08.894Z,30.70
2018-05-10T20:47:37.855Z,26.65
2018-05-10T20:50:07.504Z,29.90
2018-05-10T20:52:36.764Z,27.75
2018-05-10T20:55:05.582Z,28.23
2018-05-10T20:57:34.419Z,27.75
2018-05-10T21:00:03.174Z,27.33
2018-05-10T21:02:33.076Z,26.27
2018-05-10T21:05:01.814Z,27.35
2018-05-10T21:07:30.565Z,29.42
2018-05-10T21:09:59.332Z,33.28
2018-05-10T21:12:39.040Z,29.65
2018-05-10T21:15:07.442Z,31.55
2018-05-10T21:17:35.822Z,32.15
2018-05-10T21:20:04.911Z,33.95
2018-05-10T21:22:33.861Z,32.47
2018-05-10T21:25:03.038Z,31.05
2018-05-10T21:27:31.417Z,34.80
2018-05-10T21:30:00.160Z,34.75
2018-05-10T21:35:01.831Z,31.95
2018-05-10T21:37:30.565Z,33.67
2018-05-10T21:39:58.977Z,34.33
2018-05-10T21:42:27.689Z,32.67
2018-05-10T21:44:56.430Z,33.42
2018-05-10T21:47:24.823Z,32.95
2018-05-10T21:50:02.542Z,34.13
2018-05-10T21:52:31.242Z,31.23
2018-05-10T21:54:59.986Z,32.60
2018-05-10T21:57:28.880Z,33.15
2018-05-10T21:59:57.898Z,34.30
2018-05-10T22:02:26.622Z,34.15
2018-05-10T22:04:55.023Z,32.63
2018-05-10T22:07:23.770Z,33.50
2018-05-10T22:09:52.489Z,34.38
2018-05-10T22:14:55.502Z,33.42
2018-05-10T22:17:24.332Z,35.88
2018-05-10T22:19:54.255Z,32.78
2018-05-10T22:22:23.724Z,31.37
2018-05-10T22:24:52.978Z,31.62
2018-05-10T22:27:21.713Z,29.58
2018-05-10T22:29:50.430Z,29.50
2018-05-10T22:32:19.939Z,30.88
2018-05-10T22:34:49.079Z,29.00
2018-05-10T22:37:17.237Z,28.15
2018-05-10T22:39:46.018Z,26.85
2018-05-10T22:42:14.737Z,27.23
2018-05-10T22:44:43.549Z,25.77
2018-05-10T22:47:12.250Z,27.62
2018-05-10T22:49:40.960Z,27.87
2018-05-10T22:52:09.710Z,27.17
2018-05-10T22:54:38.414Z,27.13
2018-05-10T22:57:07.154Z,26.67
2018-05-10T22:59:35.867Z,26.65
2018-05-10T23:02:04.961Z,27.23
2018-05-10T23:04:33.687Z,26.70
2018-05-10T23:07:03.169Z,24.85
2018-05-10T23:09:32.201Z,26.12
2018-05-10T23:12:01.230Z,23.40
2018-05-10T23:14:29.947Z,25.52
2018-05-10T23:16:58.665Z,25.77
2018-05-10T23:19:28.344Z,25.45
2018-05-10T23:21:56.761Z,27.42
2018-05-10T23:24:25.486Z,25.30
2018-05-10T23:26:54.201Z,24.95
2018-05-10T23:29:22.976Z,26.35
2018-05-10T23:31:51.717Z,24.55
2018-05-10T23:34:20.446Z,26.65
2018-05-10T23:36:49.153Z,27.02
2018-05-10T23:39:17.864Z,25.17
2018-05-10T23:41:47.362Z,25.85
2018-05-10T23:44:16.841Z,25.70
2018-05-10T23:46:45.582Z,25.17
2018-05-10T23:49:14.304Z,21.87
2018-05-10T23:51:43.002Z,24.10
2018-05-10T23:54:11.722Z,21.80
2018-05-10T23:56:40.922Z,23.42
2018-05-10T23:59:10.418Z,23.23
